Observation data for Haskell on 10/19/2019      Previous  Date       Current Mesonet Observations  Soil Data  Daily Summary Page  Observations in Plain Language
KHA1 190500Z 17011G16KT 20/14 A2968 RMK A01 T02010137  RH  069%=      5-min Rain = 0
KHA1 190505Z 17010G15KT 20/14 A2968 RMK A01 T02020136  RH  069%=      5-min Rain = 0
KHA1 190510Z 17009G14KT 20/14 A2968 RMK A01 T02030135  RH  068%=      5-min Rain = 0
KHA1 190515Z 17010KT 20/14 A2968 RMK A01 T02020135  RH  068%=      5-min Rain = 0
KHA1 190520Z 17009KT 20/14 A2968 RMK A01 T02010136  RH  069%=      5-min Rain = 0
KHA1 190525Z 17011G16KT 20/14 A2967 RMK A01 T02010135  RH  069%=      5-min Rain = 0
KHA1 190530Z 17009KT 20/14 A2968 RMK A01 T01980135  RH  070%=      5-min Rain = 0
KHA1 190535Z 17007G12KT 20/14 A2968 RMK A01 T01950136  RH  071%=      5-min Rain = 0
KHA1 190540Z 18007KT 19/14 A2968 RMK A01 T01940136  RH  072%=      5-min Rain = 0
KHA1 190545Z 18008KT 19/14 A2968 RMK A01 T01920137  RH  073%=      5-min Rain = 0
KHA1 190550Z 18007KT 19/14 A2968 RMK A01 T01910138  RH  074%=      5-min Rain = 0
KHA1 190555Z 18007KT 19/14 A2967 RMK A01 T01890139  RH  076%=      5-min Rain = 0
KHA1 190600Z 18006KT 19/14 A2967 RMK A01 T01870139  RH  076%=      5-min Rain = 0
KHA1 190605Z 18008KT 19/14 A2967 RMK A01 T01860139  RH  077%=      5-min Rain = 0
KHA1 190610Z 18008KT 19/14 A2967 RMK A01 T01860139  RH  077%=      5-min Rain = 0
KHA1 190615Z 18007KT 18/14 A2967 RMK A01 T01840139  RH  078%=      5-min Rain = 0
KHA1 190620Z 18008KT 18/14 A2967 RMK A01 T01820139  RH  079%=      5-min Rain = 0
KHA1 190625Z 18007KT 18/14 A2967 RMK A01 T01810139  RH  080%=      5-min Rain = 0
KHA1 190630Z 18008KT 18/14 A2966 RMK A01 T01810139  RH  080%=      5-min Rain = 0
KHA1 190635Z 19008KT 18/14 A2966 RMK A01 T01810139  RH  080%=      5-min Rain = 0
KHA1 190640Z 19009KT 18/14 A2966 RMK A01 T01790139  RH  080%=      5-min Rain = 0
KHA1 190645Z 19008KT 18/14 A2966 RMK A01 T01780139  RH  081%=      5-min Rain = 0
KHA1 190650Z 19009KT 18/14 A2966 RMK A01 T01760138  RH  082%=      5-min Rain = 0
KHA1 190655Z 20008KT 17/14 A2966 RMK A01 T01740138  RH  083%=      5-min Rain = 0
KHA1 190700Z 21008KT 17/14 A2967 RMK A01 T01730139  RH  084%=      5-min Rain = 0
KHA1 190705Z 20008KT 17/14 A2967 RMK A01 T01710138  RH  084%=      5-min Rain = 0
KHA1 190710Z 21008KT 17/14 A2967 RMK A01 T01690138  RH  085%=      5-min Rain = 0
KHA1 190715Z 21008KT 17/14 A2967 RMK A01 T01680138  RH  086%=      5-min Rain = 0
KHA1 190720Z 21007KT 17/14 A2967 RMK A01 T01680139  RH  086%=      5-min Rain = 0
KHA1 190725Z 21007KT 17/14 A2967 RMK A01 T01690139  RH  086%=      5-min Rain = 0
KHA1 190730Z 21008KT 17/14 A2967 RMK A01 T01680139  RH  086%=      5-min Rain = 0
KHA1 190735Z 20008KT 17/14 A2967 RMK A01 T01670139  RH  087%=      5-min Rain = 0
KHA1 190740Z 21009KT 17/14 A2967 RMK A01 T01670140  RH  088%=      5-min Rain = 0
KHA1 190745Z 22009G14KT 17/14 A2967 RMK A01 T01670140  RH  088%=      5-min Rain = 0
KHA1 190750Z 22009KT 17/14 A2967 RMK A01 T01670140  RH  088%=      5-min Rain = 0
KHA1 190755Z 22009KT 17/14 A2967 RMK A01 T01670140  RH  088%=      5-min Rain = 0
KHA1 190800Z 22007KT 17/14 A2967 RMK A01 T01670139  RH  087%=      5-min Rain = 0
KHA1 190805Z 21007KT 17/14 A2967 RMK A01 T01650138  RH  087%=      5-min Rain = 0
KHA1 190810Z 22007KT 16/14 A2968 RMK A01 T01640137  RH  088%=      5-min Rain = 0
KHA1 190815Z 22007KT 16/14 A2968 RMK A01 T01630137  RH  088%=      5-min Rain = 0
KHA1 190820Z 22007KT 16/14 A2968 RMK A01 T01630137  RH  088%=      5-min Rain = 0
KHA1 190825Z 22007KT 16/14 A2968 RMK A01 T01620136  RH  088%=      5-min Rain = 0
KHA1 190830Z 22007KT 16/14 A2968 RMK A01 T01620136  RH  088%=      5-min Rain = 0
KHA1 190835Z 22008KT 16/14 A2967 RMK A01 T01620135  RH  088%=      5-min Rain = 0
KHA1 190840Z 22008KT 16/13 A2968 RMK A01 T01620134  RH  087%=      5-min Rain = 0
KHA1 190845Z 22009KT 16/13 A2968 RMK A01 T01620133  RH  086%=      5-min Rain = 0
KHA1 190850Z 24008KT 17/13 A2968 RMK A01 T01660130  RH  083%=      5-min Rain = 0
KHA1 190855Z 24008KT 17/12 A2968 RMK A01 T01670124  RH  079%=      5-min Rain = 0
KHA1 190900Z 24008KT 17/12 A2968 RMK A01 T01680121  RH  076%=      5-min Rain = 0
KHA1 190905Z 23007KT 17/12 A2968 RMK A01 T01680117  RH  074%=      5-min Rain = 0
KHA1 190910Z 23006KT 16/12 A2968 RMK A01 T01630116  RH  076%=      5-min Rain = 0
KHA1 190915Z 24007KT 16/12 A2969 RMK A01 T01610116  RH  077%=      5-min Rain = 0
KHA1 190920Z 25007KT 16/11 A2969 RMK A01 T01610114  RH  076%=      5-min Rain = 0
KHA1 190925Z 25007KT 16/11 A2969 RMK A01 T01610113  RH  076%=      5-min Rain = 0
KHA1 190930Z 24008KT 16/11 A2969 RMK A01 T01620111  RH  074%=      5-min Rain = 0
KHA1 190935Z 25007KT 17/11 A2969 RMK A01 T01650108  RH  071%=      5-min Rain = 0
KHA1 190940Z 25007KT 17/10 A2969 RMK A01 T01650104  RH  070%=      5-min Rain = 0
KHA1 190945Z 26009KT 17/10 A2969 RMK A01 T01680100  RH  067%=      5-min Rain = 0
KHA1 190950Z 26008KT 17/10 A2969 RMK A01 T01670098  RH  066%=      5-min Rain = 0
KHA1 190955Z 26009KT 17/10 A2969 RMK A01 T01660096  RH  065%=      5-min Rain = 0
KHA1 191000Z 26008KT 16/09 A2969 RMK A01 T01640093  RH  065%=      5-min Rain = 0
KHA1 191005Z 26008KT 16/09 A2969 RMK A01 T01610091  RH  065%=      5-min Rain = 0
KHA1 191010Z 26008KT 16/09 A2969 RMK A01 T01610089  RH  064%=      5-min Rain = 0
KHA1 191015Z 26008KT 16/09 A297 RMK A01 T01600087  RH  064%=      5-min Rain = 0
KHA1 191020Z 27008KT 16/09 A297 RMK A01 T01590086  RH  064%=      5-min Rain = 0
KHA1 191025Z 27008KT 16/08 A297 RMK A01 T01600084  RH  063%=      5-min Rain = 0
KHA1 191030Z 27008KT 16/08 A297 RMK A01 T01590083  RH  062%=      5-min Rain = 0
KHA1 191035Z 27008KT 16/08 A297 RMK A01 T01570083  RH  063%=      5-min Rain = 0
KHA1 191040Z 27008KT 16/08 A297 RMK A01 T01550082  RH  064%=      5-min Rain = 0
KHA1 191045Z 27009KT 16/08 A2971 RMK A01 T01550081  RH  063%=      5-min Rain = 0
KHA1 191050Z 28009KT 16/08 A2971 RMK A01 T01550080  RH  062%=      5-min Rain = 0
KHA1 191055Z 29009KT 16/08 A2971 RMK A01 T01560079  RH  062%=      5-min Rain = 0
KHA1 191100Z 29010KT 16/08 A2971 RMK A01 T01580077  RH  060%=      5-min Rain = 0
KHA1 191105Z 29010KT 16/08 A2971 RMK A01 T01560076  RH  061%=      5-min Rain = 0
KHA1 191110Z 29009KT 15/08 A2972 RMK A01 T01540076  RH  061%=      5-min Rain = 0
KHA1 191115Z 29008KT 15/08 A2972 RMK A01 T01510076  RH  062%=      5-min Rain = 0
KHA1 191120Z 29009KT 15/08 A2972 RMK A01 T01490076  RH  063%=      5-min Rain = 0
KHA1 191125Z 29009KT 15/08 A2972 RMK A01 T01480076  RH  064%=      5-min Rain = 0
KHA1 191130Z 29010KT 15/08 A2972 RMK A01 T01470075  RH  064%=      5-min Rain = 0
KHA1 191135Z 29009KT 15/08 A2972 RMK A01 T01460075  RH  064%=      5-min Rain = 0
KHA1 191140Z 29009KT 15/08 A2973 RMK A01 T01450075  RH  065%=      5-min Rain = 0
KHA1 191145Z 29009KT 15/08 A2973 RMK A01 T01450075  RH  064%=      5-min Rain = 0
KHA1 191150Z 29009KT 14/07 A2973 RMK A01 T01440074  RH  064%=      5-min Rain = 0
KHA1 191155Z 29009KT 14/07 A2973 RMK A01 T01430074  RH  065%=      5-min Rain = 0
KHA1 191200Z 28009KT 14/07 A2974 RMK A01 T01430074  RH  065%=      5-min Rain = 0
KHA1 191205Z 28008G13KT 14/07 A2974 RMK A01 T01420073  RH  065%=      5-min Rain = 0
KHA1 191210Z 29009KT 14/07 A2974 RMK A01 T01410073  RH  065%=      5-min Rain = 0
KHA1 191215Z 29009KT 14/07 A2975 RMK A01 T01420072  RH  064%=      5-min Rain = 0
KHA1 191220Z 28009KT 14/07 A2975 RMK A01 T01420071  RH  064%=      5-min Rain = 0
KHA1 191225Z 28010KT 14/07 A2975 RMK A01 T01420071  RH  064%=      5-min Rain = 0
KHA1 191230Z 29009KT 14/07 A2975 RMK A01 T01410071  RH  064%=      5-min Rain = 0
KHA1 191235Z 29008KT 14/07 A2976 RMK A01 T01380071  RH  065%=      5-min Rain = 0
KHA1 191240Z 29008KT 14/07 A2976 RMK A01 T01370071  RH  066%=      5-min Rain = 0
KHA1 191245Z 29008KT 14/07 A2976 RMK A01 T01360071  RH  066%=      5-min Rain = 0
KHA1 191250Z 29009KT 14/07 A2976 RMK A01 T01360071  RH  066%=      5-min Rain = 0
KHA1 191255Z 29008KT 14/07 A2977 RMK A01 T01360071  RH  067%=      5-min Rain = 0
KHA1 191300Z 30009KT 14/07 A2977 RMK A01 T01360071  RH  067%=      5-min Rain = 0
KHA1 191305Z 30008KT 14/07 A2977 RMK A01 T01370072  RH  066%=      5-min Rain = 0
KHA1 191310Z 30008KT 14/07 A2978 RMK A01 T01390072  RH  066%=      5-min Rain = 0
KHA1 191315Z 30009KT 14/07 A2978 RMK A01 T01400073  RH  066%=      5-min Rain = 0
KHA1 191320Z 30009KT 14/07 A2978 RMK A01 T01410074  RH  066%=      5-min Rain = 0
KHA1 191325Z 30009KT 14/07 A2978 RMK A01 T01430074  RH  065%=      5-min Rain = 0
KHA1 191330Z 31008KT 14/08 A2978 RMK A01 T01440075  RH  065%=      5-min Rain = 0
KHA1 191335Z 31009KT 15/08 A2979 RMK A01 T01470076  RH  064%=      5-min Rain = 0
KHA1 191340Z 31010KT 15/08 A2979 RMK A01 T01500077  RH  063%=      5-min Rain = 0
KHA1 191345Z 32010G15KT 15/08 A2979 RMK A01 T01540078  RH  062%=      5-min Rain = 0
KHA1 191350Z 32011G18KT 16/08 A2979 RMK A01 T01560079  RH  062%=      5-min Rain = 0
KHA1 191355Z 32011G19KT 16/08 A298 RMK A01 T01570080  RH  062%=      5-min Rain = 0
KHA1 191400Z 33013KT 16/08 A298 RMK A01 T01590082  RH  062%=      5-min Rain = 0
KHA1 191405Z 33013G18KT 16/09 A2981 RMK A01 T01610085  RH  062%=      5-min Rain = 0
KHA1 191410Z 33015KT 16/09 A2981 RMK A01 T01630087  RH  063%=      5-min Rain = 0
KHA1 191415Z 34016KT 16/09 A2981 RMK A01 T01640088  RH  063%=      5-min Rain = 0
KHA1 191420Z 33016G21KT 17/09 A2982 RMK A01 T01660089  RH  062%=      5-min Rain = 0
KHA1 191425Z 34015G21KT 17/09 A2982 RMK A01 T01670089  RH  062%=      5-min Rain = 0
KHA1 191430Z 33014G20KT 17/09 A2982 RMK A01 T01690090  RH  062%=      5-min Rain = 0
KHA1 191435Z 34014G20KT 17/09 A2982 RMK A01 T01700090  RH  061%=      5-min Rain = 0
KHA1 191440Z 34012KT 17/09 A2982 RMK A01 T01730091  RH  060%=      5-min Rain = 0
KHA1 191445Z 34015KT 17/09 A2983 RMK A01 T01730091  RH  061%=      5-min Rain = 0
KHA1 191450Z 34016G21KT 17/09 A2983 RMK A01 T01730092  RH  061%=      5-min Rain = 0
KHA1 191455Z 34016G21KT 18/09 A2983 RMK A01 T01750093  RH  060%=      5-min Rain = 0
KHA1 191500Z 33016G23KT 18/09 A2983 RMK A01 T01760094  RH  060%=      5-min Rain = 0
KHA1 191505Z 33016G22KT 18/09 A2984 RMK A01 T01770094  RH  060%=      5-min Rain = 0
KHA1 191510Z 34015G22KT 18/10 A2984 RMK A01 T01790095  RH  059%=      5-min Rain = 0
KHA1 191515Z 34015G20KT 18/10 A2984 RMK A01 T01810095  RH  059%=      5-min Rain = 0
KHA1 191520Z 33015G20KT 18/10 A2984 RMK A01 T01820095  RH  059%=      5-min Rain = 0
KHA1 191525Z 34014KT 18/10 A2985 RMK A01 T01830095  RH  058%=      5-min Rain = 0
KHA1 191530Z 34014G20KT 19/10 A2985 RMK A01 T01850096  RH  058%=      5-min Rain = 0
KHA1 191535Z 34015KT 19/10 A2985 RMK A01 T01860096  RH  057%=      5-min Rain = 0
KHA1 191540Z 35015KT 19/10 A2985 RMK A01 T01880096  RH  057%=      5-min Rain = 0
KHA1 191545Z 34014G19KT 19/10 A2985 RMK A01 T01880096  RH  057%=      5-min Rain = 0
KHA1 191550Z 34013G18KT 19/10 A2986 RMK A01 T01910097  RH  056%=      5-min Rain = 0
KHA1 191555Z 35012G18KT 19/10 A2986 RMK A01 T01930100  RH  056%=      5-min Rain = 0
KHA1 191600Z 35013G18KT 19/10 A2986 RMK A01 T01930099  RH  056%=      5-min Rain = 0
KHA1 191605Z 34014G19KT 19/10 A2986 RMK A01 T01940100  RH  056%=      5-min Rain = 0
KHA1 191610Z 34012G17KT 20/10 A2986 RMK A01 T01950100  RH  056%=      5-min Rain = 0
KHA1 191615Z 34012G19KT 20/10 A2986 RMK A01 T01980101  RH  055%=      5-min Rain = 0
KHA1 191620Z 35012G17KT 20/10 A2987 RMK A01 T01970100  RH  055%=      5-min Rain = 0
KHA1 191625Z 35012KT 20/10 A2987 RMK A01 T02000102  RH  055%=      5-min Rain = 0
KHA1 191630Z 35014G20KT 20/10 A2987 RMK A01 T02010101  RH  054%=      5-min Rain = 0
KHA1 191635Z 36013G18KT 20/10 A2987 RMK A01 T02020101  RH  054%=      5-min Rain = 0
KHA1 191640Z 34012G18KT 21/10 A2987 RMK A01 T02060103  RH  053%=      5-min Rain = 0
KHA1 191645Z 33013G19KT 21/10 A2987 RMK A01 T02060102  RH  053%=      5-min Rain = 0
KHA1 191650Z 33013G19KT 21/10 A2987 RMK A01 T02080103  RH  053%=      5-min Rain = 0
KHA1 191655Z 34015G20KT 21/10 A2987 RMK A01 T02080102  RH  052%=      5-min Rain = 0
KHA1 191700Z 35014G19KT 21/10 A2987 RMK A01 T02090103  RH  052%=      5-min Rain = 0
KHA1 191705Z 35014KT 21/10 A2987 RMK A01 T02100104  RH  052%=      5-min Rain = 0
KHA1 191710Z 34014KT 21/10 A2987 RMK A01 T02130104  RH  051%=      5-min Rain = 0
KHA1 191715Z 35011KT 22/11 A2987 RMK A01 T02160106  RH  051%=      5-min Rain = 0
KHA1 191720Z 00011KT 22/11 A2987 RMK A01 T02210106  RH  050%=      5-min Rain = 0
KHA1 191725Z 01013KT 22/10 A2987 RMK A01 T02210104  RH  049%=      5-min Rain = 0
KHA1 191730Z 35014G20KT 22/10 A2987 RMK A01 T02200103  RH  049%=      5-min Rain = 0
KHA1 191735Z 35012G17KT 22/10 A2987 RMK A01 T02220103  RH  049%=      5-min Rain = 0
KHA1 191740Z 35012G17KT 22/10 A2987 RMK A01 T02210102  RH  048%=      5-min Rain = 0
KHA1 191745Z 01012G17KT 23/10 A2987 RMK A01 T02270104  RH  047%=      5-min Rain = 0
KHA1 191750Z 35011G16KT 23/10 A2987 RMK A01 T02260103  RH  047%=      5-min Rain = 0
KHA1 191755Z 35013G18KT 23/10 A2987 RMK A01 T02250101  RH  047%=      5-min Rain = 0
KHA1 191800Z 36013G19KT 23/10 A2987 RMK A01 T02250100  RH  047%=      5-min Rain = 0
KHA1 191805Z 35013G18KT 23/10 A2986 RMK A01 T02280100  RH  046%=      5-min Rain = 0
KHA1 191810Z 00013G19KT 23/10 A2986 RMK A01 T02290098  RH  045%=      5-min Rain = 0
KHA1 191815Z 01011G16KT 23/10 A2986 RMK A01 T02300098  RH  045%=      5-min Rain = 0
KHA1 191820Z 36012G18KT 23/10 A2986 RMK A01 T02310098  RH  044%=      5-min Rain = 0
KHA1 191825Z 36009G15KT 23/10 A2986 RMK A01 T02310098  RH  044%=      5-min Rain = 0
KHA1 191830Z 00013KT 23/09 A2986 RMK A01 T02300093  RH  043%=      5-min Rain = 0
KHA1 191835Z 36009G16KT 23/09 A2986 RMK A01 T02310093  RH  043%=      5-min Rain = 0
KHA1 191840Z 35013G19KT 23/09 A2985 RMK A01 T02340092  RH  042%=      5-min Rain = 0
KHA1 191845Z 00010G15KT 24/09 A2985 RMK A01 T02350091  RH  041%=      5-min Rain = 0
KHA1 191850Z 01010KT 24/09 A2985 RMK A01 T02360093  RH  041%=      5-min Rain = 0
KHA1 191855Z 36011G16KT 24/09 A2985 RMK A01 T02400090  RH  040%=      5-min Rain = 0
KHA1 191900Z 01011G17KT 24/09 A2985 RMK A01 T02410088  RH  039%=      5-min Rain = 0
KHA1 191905Z 00009KT 24/09 A2984 RMK A01 T02370086  RH  039%=      5-min Rain = 0
KHA1 191910Z 00011G18KT 24/09 A2984 RMK A01 T02380086  RH  039%=      5-min Rain = 0
KHA1 191915Z 35012G18KT 24/08 A2984 RMK A01 T02410084  RH  038%=      5-min Rain = 0
KHA1 191920Z 01010G18KT 24/08 A2984 RMK A01 T02420083  RH  037%=      5-min Rain = 0
KHA1 191925Z 01011G17KT 24/08 A2983 RMK A01 T02400082  RH  038%=      5-min Rain = 0
KHA1 191930Z 00012G18KT 24/08 A2983 RMK A01 T02420082  RH  037%=      5-min Rain = 0
KHA1 191935Z 02010G15KT 24/08 A2983 RMK A01 T02420082  RH  037%=      5-min Rain = 0
KHA1 191940Z 01012KT 24/08 A2983 RMK A01 T02440081  RH  036%=      5-min Rain = 0
KHA1 191945Z 01010KT 25/08 A2982 RMK A01 T02470082  RH  036%=      5-min Rain = 0
KHA1 191950Z 35010G16KT 25/08 A2982 RMK A01 T02470082  RH  036%=      5-min Rain = 0
KHA1 191955Z 00011G16KT 25/08 A2982 RMK A01 T02470078  RH  035%=      5-min Rain = 0
KHA1 192000Z 00008G16KT 25/08 A2982 RMK A01 T02450079  RH  036%=      5-min Rain = 0
KHA1 192005Z 00008G17KT 25/08 A2982 RMK A01 T02490079  RH  035%=      5-min Rain = 0
KHA1 192010Z 00012KT 25/08 A2982 RMK A01 T02500075  RH  033%=      5-min Rain = 0
KHA1 192015Z 36009KT 25/08 A2982 RMK A01 T02470075  RH  034%=      5-min Rain = 0
KHA1 192020Z 01008G14KT 25/08 A2982 RMK A01 T02480077  RH  035%=      5-min Rain = 0
KHA1 192025Z 35011KT 25/07 A2982 RMK A01 T02510072  RH  033%=      5-min Rain = 0
KHA1 192030Z 01010KT 25/07 A2982 RMK A01 T02490073  RH  033%=      5-min Rain = 0
KHA1 192035Z 36008KT 25/08 A2982 RMK A01 T02510075  RH  034%=      5-min Rain = 0
KHA1 192040Z 02009KT 25/07 A2982 RMK A01 T02500072  RH  033%=      5-min Rain = 0
KHA1 192045Z 35011G16KT 26/07 A2982 RMK A01 T02550071  RH  032%=      5-min Rain = 0
KHA1 192050Z 00010G15KT 25/06 A2982 RMK A01 T02530064  RH  031%=      5-min Rain = 0
KHA1 192055Z 01011G19KT 25/06 A2982 RMK A01 T02540064  RH  030%=      5-min Rain = 0
KHA1 192100Z 01007KT 25/06 A2982 RMK A01 T02520060  RH  030%=      5-min Rain = 0
KHA1 192105Z 36011KT 26/06 A2981 RMK A01 T02550058  RH  029%=      5-min Rain = 0
KHA1 192110Z 02010G15KT 25/06 A2982 RMK A01 T02540056  RH  029%=      5-min Rain = 0
KHA1 192115Z 02010KT 25/06 A2982 RMK A01 T02540060  RH  029%=      5-min Rain = 0
KHA1 192120Z 00008KT 26/06 A2981 RMK A01 T02550061  RH  030%=      5-min Rain = 0
KHA1 192125Z 00007G13KT 26/06 A2981 RMK A01 T02550061  RH  030%=      5-min Rain = 0
KHA1 192130Z 02008G13KT 26/06 A2982 RMK A01 T02560056  RH  028%=      5-min Rain = 0
KHA1 192135Z 36007G12KT 26/06 A2981 RMK A01 T02560058  RH  029%=      5-min Rain = 0
KHA1 192140Z 00008KT 26/06 A2981 RMK A01 T02560057  RH  029%=      5-min Rain = 0
KHA1 192145Z 01009KT 26/06 A2981 RMK A01 T02550058  RH  029%=      5-min Rain = 0
KHA1 192150Z 01007KT 25/06 A2981 RMK A01 T02540058  RH  029%=      5-min Rain = 0
KHA1 192155Z 01006KT 25/06 A2981 RMK A01 T02520055  RH  029%=      5-min Rain = 0
KHA1 192200Z 35008KT 25/06 A2981 RMK A01 T02540057  RH  029%=      5-min Rain = 0
KHA1 192205Z 36008KT 25/06 A2981 RMK A01 T02540056  RH  029%=      5-min Rain = 0
KHA1 192210Z 01007KT 25/05 A2981 RMK A01 T02540053  RH  028%=      5-min Rain = 0
KHA1 192215Z 34007KT 25/05 A2982 RMK A01 T02540052  RH  028%=      5-min Rain = 0
KHA1 192220Z 35007KT 25/05 A2982 RMK A01 T02530054  RH  029%=      5-min Rain = 0
KHA1 192225Z 35008KT 25/05 A2982 RMK A01 T02510054  RH  029%=      5-min Rain = 0
KHA1 192230Z 34007KT 25/06 A2982 RMK A01 T02510055  RH  029%=      5-min Rain = 0
KHA1 192235Z 34006KT 25/06 A2982 RMK A01 T02510055  RH  029%=      5-min Rain = 0
KHA1 192240Z 35006KT 25/05 A2982 RMK A01 T02510053  RH  029%=      5-min Rain = 0
KHA1 192245Z 34008KT 25/05 A2982 RMK A01 T02500053  RH  029%=      5-min Rain = 0
KHA1 192250Z 35007KT 25/06 A2982 RMK A01 T02490055  RH  029%=      5-min Rain = 0
KHA1 192255Z 36007KT 25/05 A2982 RMK A01 T02480054  RH  029%=      5-min Rain = 0
KHA1 192300Z 34006KT 25/05 A2982 RMK A01 T02470054  RH  029%=      5-min Rain = 0
KHA1 192305Z 00005KT 25/05 A2982 RMK A01 T02460054  RH  030%=      5-min Rain = 0
KHA1 192310Z 36004KT 25/05 A2982 RMK A01 T02460054  RH  030%=      5-min Rain = 0
KHA1 192315Z 36004KT 24/06 A2982 RMK A01 T02440057  RH  031%=      5-min Rain = 0
KHA1 192320Z 00005KT 24/06 A2982 RMK A01 T02410056  RH  031%=      5-min Rain = 0
KHA1 192325Z 00005KT 24/06 A2982 RMK A01 T02380056  RH  031%=      5-min Rain = 0
KHA1 192330Z 00004KT 24/06 A2982 RMK A01 T02350058  RH  033%=      5-min Rain = 0
KHA1 192335Z 01004KT 23/06 A2982 RMK A01 T02310058  RH  033%=      5-min Rain = 0
KHA1 192340Z 01004KT 23/06 A2982 RMK A01 T02280059  RH  034%=      5-min Rain = 0
KHA1 192345Z 01005KT 22/06 A2982 RMK A01 T02230059  RH  035%=      5-min Rain = 0
KHA1 192350Z 01005KT 22/06 A2982 RMK A01 T02160060  RH  037%=      5-min Rain = 0
KHA1 192355Z 01005KT 21/06 A2982 RMK A01 T02110059  RH  038%=      5-min Rain = 0
KHA1 200000Z 01004KT 21/06 A2982 RMK A01 T02060063  RH  040%=      5-min Rain = 0
KHA1 200005Z 02002KT 20/06 A2982 RMK A01 T02020063  RH  041%=      5-min Rain = 0
KHA1 200010Z 04002KT 20/06 A2983 RMK A01 T01980060  RH  042%=      5-min Rain = 0
KHA1 200015Z 04002KT 20/06 A2983 RMK A01 T02000060  RH  041%=      5-min Rain = 0
KHA1 200020Z 04002KT 19/06 A2983 RMK A01 T01940064  RH  044%=      5-min Rain = 0
KHA1 200025Z 03002KT 19/06 A2983 RMK A01 T01890061  RH  044%=      5-min Rain = 0
KHA1 200030Z 03002KT 19/07 A2983 RMK A01 T01850065  RH  047%=      5-min Rain = 0
KHA1 200035Z 04002KT 18/07 A2983 RMK A01 T01810066  RH  048%=      5-min Rain = 0
KHA1 200040Z 03002KT 18/06 A2983 RMK A01 T01810063  RH  047%=      5-min Rain = 0
KHA1 200045Z 03002KT 18/06 A2983 RMK A01 T01800064  RH  048%=      5-min Rain = 0
KHA1 200050Z 04003KT 18/06 A2983 RMK A01 T01790064  RH  048%=      5-min Rain = 0
KHA1 200055Z 03002KT 18/06 A2983 RMK A01 T01750064  RH  049%=      5-min Rain = 0
KHA1 200100Z 04002KT 17/06 A2983 RMK A01 T01710064  RH  051%=      5-min Rain = 0
KHA1 200105Z 05001KT 17/07 A2983 RMK A01 T01680066  RH  052%=      5-min Rain = 0
KHA1 200110Z 04002KT 17/07 A2983 RMK A01 T01650066  RH  053%=      5-min Rain = 0
KHA1 200115Z 04002KT 16/07 A2983 RMK A01 T01630066  RH  054%=      5-min Rain = 0
KHA1 200120Z 04002KT 16/07 A2983 RMK A01 T01630065  RH  054%=      5-min Rain = 0
KHA1 200125Z 05003KT 16/06 A2984 RMK A01 T01630062  RH  053%=      5-min Rain = 0
KHA1 200130Z 05002KT 16/06 A2984 RMK A01 T01630062  RH  052%=      5-min Rain = 0
KHA1 200135Z 06002KT 16/06 A2984 RMK A01 T01620063  RH  053%=      5-min Rain = 0
KHA1 200140Z 07003KT 16/06 A2984 RMK A01 T01580064  RH  055%=      5-min Rain = 0
KHA1 200145Z 09005KT 16/06 A2984 RMK A01 T01580064  RH  055%=      5-min Rain = 0
KHA1 200150Z 09004KT 17/06 A2984 RMK A01 T01680057  RH  049%=      5-min Rain = 0
KHA1 200155Z 09004KT 18/06 A2984 RMK A01 T01750056  RH  046%=      5-min Rain = 0
KHA1 200200Z 10004KT 18/06 A2984 RMK A01 T01790055  RH  045%=      5-min Rain = 0
KHA1 200205Z 10004KT 18/05 A2984 RMK A01 T01810053  RH  044%=      5-min Rain = 0
KHA1 200210Z 10004KT 18/05 A2984 RMK A01 T01820053  RH  044%=      5-min Rain = 0
KHA1 200215Z 10004KT 18/05 A2984 RMK A01 T01840053  RH  043%=      5-min Rain = 0
KHA1 200220Z 10004KT 18/05 A2984 RMK A01 T01840053  RH  043%=      5-min Rain = 0
KHA1 200225Z 10004KT 18/05 A2984 RMK A01 T01830052  RH  043%=      5-min Rain = 0
KHA1 200230Z 11005KT 18/05 A2984 RMK A01 T01830050  RH  042%=      5-min Rain = 0
KHA1 200235Z 10004KT 18/05 A2984 RMK A01 T01830050  RH  042%=      5-min Rain = 0
KHA1 200240Z 09004KT 18/05 A2984 RMK A01 T01830049  RH  042%=      5-min Rain = 0
KHA1 200245Z 10004KT 18/05 A2984 RMK A01 T01820049  RH  042%=      5-min Rain = 0
KHA1 200250Z 09004KT 18/05 A2984 RMK A01 T01810050  RH  043%=      5-min Rain = 0
KHA1 200255Z 09004KT 18/05 A2984 RMK A01 T01790050  RH  043%=      5-min Rain = 0
KHA1 200300Z 10004KT 18/05 A2984 RMK A01 T01770049  RH  044%=      5-min Rain = 0
KHA1 200305Z 10004KT 18/05 A2984 RMK A01 T01750050  RH  045%=      5-min Rain = 0
KHA1 200310Z 10004KT 17/05 A2985 RMK A01 T01740051  RH  045%=      5-min Rain = 0
KHA1 200315Z 10003KT 18/05 A2985 RMK A01 T01750051  RH  045%=      5-min Rain = 0
KHA1 200320Z 10004KT 17/05 A2985 RMK A01 T01740051  RH  045%=      5-min Rain = 0
KHA1 200325Z 10004KT 17/05 A2985 RMK A01 T01720051  RH  046%=      5-min Rain = 0
KHA1 200330Z 10004KT 17/05 A2984 RMK A01 T01720051  RH  046%=      5-min Rain = 0
KHA1 200335Z 10004KT 17/05 A2985 RMK A01 T01720051  RH  046%=      5-min Rain = 0
KHA1 200340Z 10004KT 17/05 A2985 RMK A01 T01710051  RH  046%=      5-min Rain = 0
KHA1 200345Z 10004KT 17/05 A2985 RMK A01 T01690051  RH  046%=      5-min Rain = 0
KHA1 200350Z 10004KT 17/05 A2985 RMK A01 T01680052  RH  047%=      5-min Rain = 0
KHA1 200355Z 09004KT 17/05 A2985 RMK A01 T01680051  RH  047%=      5-min Rain = 0
KHA1 200400Z 09004KT 17/05 A2985 RMK A01 T01670051  RH  047%=      5-min Rain = 0
KHA1 200405Z 10004KT 17/05 A2985 RMK A01 T01670049  RH  046%=      5-min Rain = 0
KHA1 200410Z 10004KT 17/05 A2985 RMK A01 T01660048  RH  046%=      5-min Rain = 0
KHA1 200415Z 09004KT 17/05 A2985 RMK A01 T01650049  RH  047%=      5-min Rain = 0
KHA1 200420Z 10004KT 17/05 A2985 RMK A01 T01660050  RH  047%=      5-min Rain = 0
KHA1 200425Z 10004KT 17/05 A2985 RMK A01 T01650050  RH  047%=      5-min Rain = 0
KHA1 200430Z 10005KT 16/05 A2985 RMK A01 T01630049  RH  048%=      5-min Rain = 0
KHA1 200435Z 11005KT 16/05 A2985 RMK A01 T01590048  RH  049%=      5-min Rain = 0
KHA1 200440Z 10005KT 16/05 A2985 RMK A01 T01590050  RH  049%=      5-min Rain = 0
KHA1 200445Z 10005KT 16/05 A2985 RMK A01 T01610050  RH  049%=      5-min Rain = 0
KHA1 200450Z 10005KT 16/05 A2985 RMK A01 T01600050  RH  049%=      5-min Rain = 0
KHA1 200455Z 10005KT 16/05 A2984 RMK A01 T01590051  RH  049%=      5-min Rain = 0

Page generated in 0.0091 seconds.